sensor_id;sensor_type;location;lat;lon;timestamp;temperature;humidity
22418;DHT22;11376;50.932;4.442;2024-03-06T00:00:28;8.70;99.90
22418;DHT22;11376;50.932;4.442;2024-03-06T00:02:54;8.70;99.90
22418;DHT22;11376;50.932;4.442;2024-03-06T00:05:20;8.50;99.90
22418;DHT22;11376;50.932;4.442;2024-03-06T00:07:46;8.40;99.90
22418;DHT22;11376;50.932;4.442;2024-03-06T00:10:12;8.40;99.90
22418;DHT22;11376;50.932;4.442;2024-03-06T00:12:37;8.30;99.90
22418;DHT22;11376;50.932;4.442;2024-03-06T00:18:25;8.10;99.90
22418;DHT22;11376;50.932;4.442;2024-03-06T00:20:51;8.00;99.90
22418;DHT22;11376;50.932;4.442;2024-03-06T00:23:16;8.00;99.90
22418;DHT22;11376;50.932;4.442;2024-03-06T00:25:42;7.90;99.90
22418;DHT22;11376;50.932;4.442;2024-03-06T00:28:07;7.80;99.90
22418;DHT22;11376;50.932;4.442;2024-03-06T00:30:33;7.80;99.90
22418;DHT22;11376;50.932;4.442;2024-03-06T00:32:59;7.80;99.90
22418;DHT22;11376;50.932;4.442;2024-03-06T00:35:24;7.80;99.90
22418;DHT22;11376;50.932;4.442;2024-03-06T00:37:52;7.80;99.90
22418;DHT22;11376;50.932;4.442;2024-03-06T00:40:18;7.80;99.90
22418;DHT22;11376;50.932;4.442;2024-03-06T00:42:45;7.90;99.90
22418;DHT22;11376;50.932;4.442;2024-03-06T00:45:11;7.90;99.90
22418;DHT22;11376;50.932;4.442;2024-03-06T00:47:37;7.70;99.90
22418;DHT22;11376;50.932;4.442;2024-03-06T00:50:03;7.70;99.90
22418;DHT22;11376;50.932;4.442;2024-03-06T00:52:32;7.80;99.90
22418;DHT22;11376;50.932;4.442;2024-03-06T00:54:58;7.80;99.90
22418;DHT22;11376;50.932;4.442;2024-03-06T00:57:24;7.70;99.90
22418;DHT22;11376;50.932;4.442;2024-03-06T00:59:50;7.60;99.90
22418;DHT22;11376;50.932;4.442;2024-03-06T01:02:15;7.50;99.90
22418;DHT22;11376;50.932;4.442;2024-03-06T01:04:43;7.40;99.90
22418;DHT22;11376;50.932;4.442;2024-03-06T01:07:09;7.30;99.90
22418;DHT22;11376;50.932;4.442;2024-03-06T01:09:34;7.30;99.90
22418;DHT22;11376;50.932;4.442;2024-03-06T01:12:00;7.30;99.90
22418;DHT22;11376;50.932;4.442;2024-03-06T01:14:29;7.20;99.90
22418;DHT22;11376;50.932;4.442;2024-03-06T01:16:57;7.20;99.90
22418;DHT22;11376;50.932;4.442;2024-03-06T01:19:23;7.10;99.90
22418;DHT22;11376;50.932;4.442;2024-03-06T01:21:49;7.00;99.90
22418;DHT22;11376;50.932;4.442;2024-03-06T01:24:14;6.90;99.90
22418;DHT22;11376;50.932;4.442;2024-03-06T01:26:40;6.80;99.90
22418;DHT22;11376;50.932;4.442;2024-03-06T01:29:06;6.60;99.90
22418;DHT22;11376;50.932;4.442;2024-03-06T01:31:32;6.60;99.90
22418;DHT22;11376;50.932;4.442;2024-03-06T01:33:57;6.50;99.90
22418;DHT22;11376;50.932;4.442;2024-03-06T01:36:23;6.50;99.90
22418;DHT22;11376;50.932;4.442;2024-03-06T01:38:49;6.50;99.90
22418;DHT22;11376;50.932;4.442;2024-03-06T01:41:15;6.40;99.90
22418;DHT22;11376;50.932;4.442;2024-03-06T01:43:41;6.30;99.90
22418;DHT22;11376;50.932;4.442;2024-03-06T01:46:06;6.30;99.90
22418;DHT22;11376;50.932;4.442;2024-03-06T01:48:33;6.20;99.90
22418;DHT22;11376;50.932;4.442;2024-03-06T01:51:01;6.20;99.90
22418;DHT22;11376;50.932;4.442;2024-03-06T01:53:29;6.10;99.90
22418;DHT22;11376;50.932;4.442;2024-03-06T01:55:57;6.10;99.90
22418;DHT22;11376;50.932;4.442;2024-03-06T01:58:23;6.00;99.90
22418;DHT22;11376;50.932;4.442;2024-03-06T02:00:50;6.10;99.90
22418;DHT22;11376;50.932;4.442;2024-03-06T02:03:17;6.00;99.90
22418;DHT22;11376;50.932;4.442;2024-03-06T02:05:42;6.00;99.90
22418;DHT22;11376;50.932;4.442;2024-03-06T02:08:08;6.10;99.90
22418;DHT22;11376;50.932;4.442;2024-03-06T02:10:34;6.00;99.90
22418;DHT22;11376;50.932;4.442;2024-03-06T02:13:00;5.90;99.90
22418;DHT22;11376;50.932;4.442;2024-03-06T02:15:26;5.90;99.90
22418;DHT22;11376;50.932;4.442;2024-03-06T02:17:52;5.90;99.90
22418;DHT22;11376;50.932;4.442;2024-03-06T02:20:25;5.90;99.90
22418;DHT22;11376;50.932;4.442;2024-03-06T02:22:51;5.90;99.90
22418;DHT22;11376;50.932;4.442;2024-03-06T02:25:17;5.80;99.90
22418;DHT22;11376;50.932;4.442;2024-03-06T02:27:44;5.80;99.90
22418;DHT22;11376;50.932;4.442;2024-03-06T02:30:10;5.80;99.90
22418;DHT22;11376;50.932;4.442;2024-03-06T02:32:36;5.80;99.90
22418;DHT22;11376;50.932;4.442;2024-03-06T02:35:02;5.80;99.90
22418;DHT22;11376;50.932;4.442;2024-03-06T02:37:34;5.70;99.90
22418;DHT22;11376;50.932;4.442;2024-03-06T02:39:59;5.60;99.90
22418;DHT22;11376;50.932;4.442;2024-03-06T02:42:27;5.60;99.90
22418;DHT22;11376;50.932;4.442;2024-03-06T02:44:53;5.60;99.90
22418;DHT22;11376;50.932;4.442;2024-03-06T02:47:19;5.50;99.90
22418;DHT22;11376;50.932;4.442;2024-03-06T02:49:44;5.60;99.90
22418;DHT22;11376;50.932;4.442;2024-03-06T02:52:10;5.60;99.90
22418;DHT22;11376;50.932;4.442;2024-03-06T02:54:36;5.50;99.90
22418;DHT22;11376;50.932;4.442;2024-03-06T02:57:01;5.50;99.90
22418;DHT22;11376;50.932;4.442;2024-03-06T02:59:27;5.50;99.90
22418;DHT22;11376;50.932;4.442;2024-03-06T03:01:53;5.50;99.90
22418;DHT22;11376;50.932;4.442;2024-03-06T03:04:18;5.50;99.90
22418;DHT22;11376;50.932;4.442;2024-03-06T03:06:44;5.60;99.90
22418;DHT22;11376;50.932;4.442;2024-03-06T03:09:10;5.50;99.90
22418;DHT22;11376;50.932;4.442;2024-03-06T03:11:37;5.60;99.90
22418;DHT22;11376;50.932;4.442;2024-03-06T03:14:03;5.60;99.90
22418;DHT22;11376;50.932;4.442;2024-03-06T03:16:29;5.60;99.90
22418;DHT22;11376;50.932;4.442;2024-03-06T03:18:55;5.60;99.90
22418;DHT22;11376;50.932;4.442;2024-03-06T03:21:21;5.60;99.90
22418;DHT22;11376;50.932;4.442;2024-03-06T03:23:47;5.50;99.90
22418;DHT22;11376;50.932;4.442;2024-03-06T03:26:14;5.40;99.90
22418;DHT22;11376;50.932;4.442;2024-03-06T03:28:39;5.40;99.90
22418;DHT22;11376;50.932;4.442;2024-03-06T03:31:08;5.40;99.90
22418;DHT22;11376;50.932;4.442;2024-03-06T03:33:40;5.30;99.90
22418;DHT22;11376;50.932;4.442;2024-03-06T03:36:06;5.20;99.90
22418;DHT22;11376;50.932;4.442;2024-03-06T03:38:33;5.10;99.90
22418;DHT22;11376;50.932;4.442;2024-03-06T03:41:01;5.10;99.90
22418;DHT22;11376;50.932;4.442;2024-03-06T03:43:29;5.00;99.90
22418;DHT22;11376;50.932;4.442;2024-03-06T03:45:55;5.00;99.90
22418;DHT22;11376;50.932;4.442;2024-03-06T03:48:21;5.00;99.90
22418;DHT22;11376;50.932;4.442;2024-03-06T03:50:46;5.00;99.90
22418;DHT22;11376;50.932;4.442;2024-03-06T03:53:12;5.00;99.90
22418;DHT22;11376;50.932;4.442;2024-03-06T03:55:37;4.90;99.90
22418;DHT22;11376;50.932;4.442;2024-03-06T03:58:03;4.90;99.90
22418;DHT22;11376;50.932;4.442;2024-03-06T04:00:29;4.90;99.90
22418;DHT22;11376;50.932;4.442;2024-03-06T04:02:56;4.90;99.90
22418;DHT22;11376;50.932;4.442;2024-03-06T04:05:22;5.00;99.90
22418;DHT22;11376;50.932;4.442;2024-03-06T04:07:48;5.00;99.90
22418;DHT22;11376;50.932;4.442;2024-03-06T04:10:14;4.90;99.90
22418;DHT22;11376;50.932;4.442;2024-03-06T04:12:40;5.00;99.90
22418;DHT22;11376;50.932;4.442;2024-03-06T04:15:05;4.90;99.90
22418;DHT22;11376;50.932;4.442;2024-03-06T04:17:31;4.80;99.90
22418;DHT22;11376;50.932;4.442;2024-03-06T04:19:57;4.80;99.90
22418;DHT22;11376;50.932;4.442;2024-03-06T04:22:22;4.70;99.90
22418;DHT22;11376;50.932;4.442;2024-03-06T04:24:48;4.60;99.90
22418;DHT22;11376;50.932;4.442;2024-03-06T04:27:13;4.50;99.90
22418;DHT22;11376;50.932;4.442;2024-03-06T04:29:39;4.60;99.90
22418;DHT22;11376;50.932;4.442;2024-03-06T04:32:05;4.70;99.90
22418;DHT22;11376;50.932;4.442;2024-03-06T04:34:30;4.80;99.90
22418;DHT22;11376;50.932;4.442;2024-03-06T04:36:56;4.60;99.90
22418;DHT22;11376;50.932;4.442;2024-03-06T04:39:22;4.60;99.90
22418;DHT22;11376;50.932;4.442;2024-03-06T04:41:47;4.50;99.90
22418;DHT22;11376;50.932;4.442;2024-03-06T04:44:13;4.40;99.90
22418;DHT22;11376;50.932;4.442;2024-03-06T04:46:39;4.50;99.90
22418;DHT22;11376;50.932;4.442;2024-03-06T04:49:04;4.40;99.90
22418;DHT22;11376;50.932;4.442;2024-03-06T04:51:30;4.20;99.90
22418;DHT22;11376;50.932;4.442;2024-03-06T04:53:55;4.10;99.90
22418;DHT22;11376;50.932;4.442;2024-03-06T04:56:21;4.10;99.90
22418;DHT22;11376;50.932;4.442;2024-03-06T04:58:47;4.10;99.90
22418;DHT22;11376;50.932;4.442;2024-03-06T05:01:13;4.10;99.90
22418;DHT22;11376;50.932;4.442;2024-03-06T05:03:39;4.20;99.90
22418;DHT22;11376;50.932;4.442;2024-03-06T05:06:05;4.20;99.90
22418;DHT22;11376;50.932;4.442;2024-03-06T05:08:31;4.20;99.90
22418;DHT22;11376;50.932;4.442;2024-03-06T05:10:59;4.10;99.90
22418;DHT22;11376;50.932;4.442;2024-03-06T05:13:25;4.10;99.90
22418;DHT22;11376;50.932;4.442;2024-03-06T05:15:51;4.20;99.90
22418;DHT22;11376;50.932;4.442;2024-03-06T05:18:17;4.20;99.90
22418;DHT22;11376;50.932;4.442;2024-03-06T05:20:43;4.10;99.90
22418;DHT22;11376;50.932;4.442;2024-03-06T05:23:12;4.10;99.90
22418;DHT22;11376;50.932;4.442;2024-03-06T05:25:40;4.00;99.90
22418;DHT22;11376;50.932;4.442;2024-03-06T05:28:06;4.00;99.90
22418;DHT22;11376;50.932;4.442;2024-03-06T05:30:32;4.00;99.90
22418;DHT22;11376;50.932;4.442;2024-03-06T05:32:57;4.00;99.90
22418;DHT22;11376;50.932;4.442;2024-03-06T05:35:23;4.00;99.90
22418;DHT22;11376;50.932;4.442;2024-03-06T05:37:48;4.00;99.90
22418;DHT22;11376;50.932;4.442;2024-03-06T05:40:14;4.00;99.90
22418;DHT22;11376;50.932;4.442;2024-03-06T05:42:40;4.00;99.90
22418;DHT22;11376;50.932;4.442;2024-03-06T05:45:06;4.00;99.90
22418;DHT22;11376;50.932;4.442;2024-03-06T05:47:36;4.00;99.90
22418;DHT22;11376;50.932;4.442;2024-03-06T05:50:02;4.00;99.90
22418;DHT22;11376;50.932;4.442;2024-03-06T05:52:31;4.00;99.90
22418;DHT22;11376;50.932;4.442;2024-03-06T05:54:57;3.90;99.90
22418;DHT22;11376;50.932;4.442;2024-03-06T05:57:22;3.90;99.90
22418;DHT22;11376;50.932;4.442;2024-03-06T05:59:48;3.90;99.90
22418;DHT22;11376;50.932;4.442;2024-03-06T06:02:13;3.90;99.90
22418;DHT22;11376;50.932;4.442;2024-03-06T06:04:42;4.00;99.90
22418;DHT22;11376;50.932;4.442;2024-03-06T06:07:07;3.90;99.90
22418;DHT22;11376;50.932;4.442;2024-03-06T06:09:33;3.90;99.90
22418;DHT22;11376;50.932;4.442;2024-03-06T06:11:59;4.00;99.90
22418;DHT22;11376;50.932;4.442;2024-03-06T06:14:25;4.00;99.90
22418;DHT22;11376;50.932;4.442;2024-03-06T06:16:52;4.00;99.90
22418;DHT22;11376;50.932;4.442;2024-03-06T06:19:18;3.90;99.90
22418;DHT22;11376;50.932;4.442;2024-03-06T06:21:43;3.90;99.90
22418;DHT22;11376;50.932;4.442;2024-03-06T06:24:09;3.90;99.90
22418;DHT22;11376;50.932;4.442;2024-03-06T06:26:35;3.90;99.90
22418;DHT22;11376;50.932;4.442;2024-03-06T06:29:00;3.90;99.90
22418;DHT22;11376;50.932;4.442;2024-03-06T06:31:26;3.90;99.90
22418;DHT22;11376;50.932;4.442;2024-03-06T06:33:53;3.90;99.90
22418;DHT22;11376;50.932;4.442;2024-03-06T06:36:18;4.00;99.90
22418;DHT22;11376;50.932;4.442;2024-03-06T06:38:46;4.10;99.90
22418;DHT22;11376;50.932;4.442;2024-03-06T06:41:11;4.10;99.90
22418;DHT22;11376;50.932;4.442;2024-03-06T06:43:37;4.20;99.90
22418;DHT22;11376;50.932;4.442;2024-03-06T06:46:02;4.30;99.90
22418;DHT22;11376;50.932;4.442;2024-03-06T06:48:30;4.30;99.90
22418;DHT22;11376;50.932;4.442;2024-03-06T06:50:56;4.40;99.90
22418;DHT22;11376;50.932;4.442;2024-03-06T06:53:21;4.40;99.90
22418;DHT22;11376;50.932;4.442;2024-03-06T06:55:47;4.50;99.90
22418;DHT22;11376;50.932;4.442;2024-03-06T06:58:12;4.40;99.90
22418;DHT22;11376;50.932;4.442;2024-03-06T07:00:38;4.40;99.90
22418;DHT22;11376;50.932;4.442;2024-03-06T07:03:04;4.50;99.90
22418;DHT22;11376;50.932;4.442;2024-03-06T07:05:30;4.50;99.90
22418;DHT22;11376;50.932;4.442;2024-03-06T07:07:55;4.50;99.90
22418;DHT22;11376;50.932;4.442;2024-03-06T07:10:21;4.60;99.90
22418;DHT22;11376;50.932;4.442;2024-03-06T07:12:47;4.70;99.90
22418;DHT22;11376;50.932;4.442;2024-03-06T07:15:13;4.70;99.90
22418;DHT22;11376;50.932;4.442;2024-03-06T07:17:38;4.80;99.90
22418;DHT22;11376;50.932;4.442;2024-03-06T07:20:04;4.80;99.90
22418;DHT22;11376;50.932;4.442;2024-03-06T07:22:31;4.90;99.90
22418;DHT22;11376;50.932;4.442;2024-03-06T07:24:59;5.00;99.90
22418;DHT22;11376;50.932;4.442;2024-03-06T07:27:25;5.10;99.90
22418;DHT22;11376;50.932;4.442;2024-03-06T07:29:51;5.20;99.90
22418;DHT22;11376;50.932;4.442;2024-03-06T07:32:16;5.30;99.90
22418;DHT22;11376;50.932;4.442;2024-03-06T07:34:42;5.30;99.90
22418;DHT22;11376;50.932;4.442;2024-03-06T07:37:07;5.50;99.90
22418;DHT22;11376;50.932;4.442;2024-03-06T07:39:33;5.50;99.90
22418;DHT22;11376;50.932;4.442;2024-03-06T07:42:00;5.50;99.90
22418;DHT22;11376;50.932;4.442;2024-03-06T07:44:25;5.70;99.90
22418;DHT22;11376;50.932;4.442;2024-03-06T07:46:51;5.70;99.90
22418;DHT22;11376;50.932;4.442;2024-03-06T07:49:18;5.80;99.90
22418;DHT22;11376;50.932;4.442;2024-03-06T07:51:44;5.80;99.90
22418;DHT22;11376;50.932;4.442;2024-03-06T07:54:09;5.80;99.90
22418;DHT22;11376;50.932;4.442;2024-03-06T07:56:35;5.90;99.90
22418;DHT22;11376;50.932;4.442;2024-03-06T07:59:01;6.00;99.90
22418;DHT22;11376;50.932;4.442;2024-03-06T08:01:27;6.00;99.90
22418;DHT22;11376;50.932;4.442;2024-03-06T08:03:54;6.10;99.90
22418;DHT22;11376;50.932;4.442;2024-03-06T08:06:20;6.10;99.90
22418;DHT22;11376;50.932;4.442;2024-03-06T08:08:46;6.20;99.90
22418;DHT22;11376;50.932;4.442;2024-03-06T08:11:13;6.30;99.90
22418;DHT22;11376;50.932;4.442;2024-03-06T08:13:39;6.50;99.90
22418;DHT22;11376;50.932;4.442;2024-03-06T08:16:05;6.60;99.90
22418;DHT22;11376;50.932;4.442;2024-03-06T08:18:32;6.70;99.90
22418;DHT22;11376;50.932;4.442;2024-03-06T08:20:58;6.80;99.90
22418;DHT22;11376;50.932;4.442;2024-03-06T08:23:24;6.80;99.90
22418;DHT22;11376;50.932;4.442;2024-03-06T08:25:50;6.90;99.90
22418;DHT22;11376;50.932;4.442;2024-03-06T08:28:16;7.00;99.90
22418;DHT22;11376;50.932;4.442;2024-03-06T08:30:42;7.10;99.90
22418;DHT22;11376;50.932;4.442;2024-03-06T08:33:09;7.20;99.90
22418;DHT22;11376;50.932;4.442;2024-03-06T08:35:35;7.30;99.90
22418;DHT22;11376;50.932;4.442;2024-03-06T08:38:01;7.40;99.90
22418;DHT22;11376;50.932;4.442;2024-03-06T08:40:26;7.50;99.90
22418;DHT22;11376;50.932;4.442;2024-03-06T08:42:53;7.60;99.90
22418;DHT22;11376;50.932;4.442;2024-03-06T08:45:19;7.70;99.90
22418;DHT22;11376;50.932;4.442;2024-03-06T08:47:45;7.80;99.90
22418;DHT22;11376;50.932;4.442;2024-03-06T08:50:12;7.90;99.90
22418;DHT22;11376;50.932;4.442;2024-03-06T08:52:39;7.90;99.90
22418;DHT22;11376;50.932;4.442;2024-03-06T08:55:06;8.10;99.90
22418;DHT22;11376;50.932;4.442;2024-03-06T08:57:33;8.10;99.90
22418;DHT22;11376;50.932;4.442;2024-03-06T08:59:59;8.30;99.90
22418;DHT22;11376;50.932;4.442;2024-03-06T09:02:25;8.40;99.90
22418;DHT22;11376;50.932;4.442;2024-03-06T09:04:51;8.50;99.90
22418;DHT22;11376;50.932;4.442;2024-03-06T09:07:17;8.60;99.90
22418;DHT22;11376;50.932;4.442;2024-03-06T09:09:43;8.90;99.90
22418;DHT22;11376;50.932;4.442;2024-03-06T09:12:10;8.90;99.90
22418;DHT22;11376;50.932;4.442;2024-03-06T09:14:39;9.10;99.90
22418;DHT22;11376;50.932;4.442;2024-03-06T09:17:05;9.20;99.90
22418;DHT22;11376;50.932;4.442;2024-03-06T09:19:32;9.50;99.90
22418;DHT22;11376;50.932;4.442;2024-03-06T09:21:58;9.30;99.90
22418;DHT22;11376;50.932;4.442;2024-03-06T09:24:24;9.30;99.90
22418;DHT22;11376;50.932;4.442;2024-03-06T09:26:50;9.30;99.90
22418;DHT22;11376;50.932;4.442;2024-03-06T09:29:16;9.30;99.90
22418;DHT22;11376;50.932;4.442;2024-03-06T09:31:42;9.30;99.90
22418;DHT22;11376;50.932;4.442;2024-03-06T09:34:08;9.20;99.90
22418;DHT22;11376;50.932;4.442;2024-03-06T09:36:38;9.30;99.90
22418;DHT22;11376;50.932;4.442;2024-03-06T09:39:03;9.40;99.90
22418;DHT22;11376;50.932;4.442;2024-03-06T09:41:33;9.80;99.90
22418;DHT22;11376;50.932;4.442;2024-03-06T09:44:00;10.10;99.90
22418;DHT22;11376;50.932;4.442;2024-03-06T09:46:26;10.30;99.90
22418;DHT22;11376;50.932;4.442;2024-03-06T09:48:52;10.40;99.90
22418;DHT22;11376;50.932;4.442;2024-03-06T09:51:18;10.30;99.90
22418;DHT22;11376;50.932;4.442;2024-03-06T09:53:46;10.10;99.90
22418;DHT22;11376;50.932;4.442;2024-03-06T09:56:15;10.10;99.90
22418;DHT22;11376;50.932;4.442;2024-03-06T09:58:40;10.20;99.90
22418;DHT22;11376;50.932;4.442;2024-03-06T10:01:07;10.30;99.90
22418;DHT22;11376;50.932;4.442;2024-03-06T10:03:33;10.40;99.90
22418;DHT22;11376;50.932;4.442;2024-03-06T10:06:00;10.30;99.90
22418;DHT22;11376;50.932;4.442;2024-03-06T10:08:25;10.40;99.90
22418;DHT22;11376;50.932;4.442;2024-03-06T10:10:52;10.80;99.90
22418;DHT22;11376;50.932;4.442;2024-03-06T10:13:17;11.10;99.90
22418;DHT22;11376;50.932;4.442;2024-03-06T10:16:03;11.50;99.90
22418;DHT22;11376;50.932;4.442;2024-03-06T10:18:33;11.80;99.90
22418;DHT22;11376;50.932;4.442;2024-03-06T10:20:59;11.70;99.90
22418;DHT22;11376;50.932;4.442;2024-03-06T10:23:26;12.10;99.90
22418;DHT22;11376;50.932;4.442;2024-03-06T10:25:55;12.60;99.90
22418;DHT22;11376;50.932;4.442;2024-03-06T10:28:22;12.70;99.90
22418;DHT22;11376;50.932;4.442;2024-03-06T10:30:49;13.20;99.90
22418;DHT22;11376;50.932;4.442;2024-03-06T10:33:16;13.80;99.90
22418;DHT22;11376;50.932;4.442;2024-03-06T10:35:46;14.00;99.90
22418;DHT22;11376;50.932;4.442;2024-03-06T10:38:13;14.50;99.90
22418;DHT22;11376;50.932;4.442;2024-03-06T10:40:41;14.70;99.90
22418;DHT22;11376;50.932;4.442;2024-03-06T10:43:07;14.70;99.90
22418;DHT22;11376;50.932;4.442;2024-03-06T10:48:07;14.60;99.90
22418;DHT22;11376;50.932;4.442;2024-03-06T10:50:33;14.40;99.90
22418;DHT22;11376;50.932;4.442;2024-03-06T10:53:00;13.90;99.90
22418;DHT22;11376;50.932;4.442;2024-03-06T10:55:28;13.30;99.90
22418;DHT22;11376;50.932;4.442;2024-03-06T10:57:56;13.30;99.90
22418;DHT22;11376;50.932;4.442;2024-03-06T11:00:23;13.00;99.90
22418;DHT22;11376;50.932;4.442;2024-03-06T11:02:51;13.20;99.90
22418;DHT22;11376;50.932;4.442;2024-03-06T11:05:18;13.10;99.90
22418;DHT22;11376;50.932;4.442;2024-03-06T11:07:44;13.40;99.90
22418;DHT22;11376;50.932;4.442;2024-03-06T11:10:10;14.40;99.90
22418;DHT22;11376;50.932;4.442;2024-03-06T11:12:42;14.70;99.90
22418;DHT22;11376;50.932;4.442;2024-03-06T11:15:14;15.10;99.90
22418;DHT22;11376;50.932;4.442;2024-03-06T11:17:40;15.00;99.90
22418;DHT22;11376;50.932;4.442;2024-03-06T11:20:13;14.20;99.90
22418;DHT22;11376;50.932;4.442;2024-03-06T11:28:11;13.90;99.90
22418;DHT22;11376;50.932;4.442;2024-03-06T11:33:40;14.00;99.90
22418;DHT22;11376;50.932;4.442;2024-03-06T11:36:23;14.00;99.90
22418;DHT22;11376;50.932;4.442;2024-03-06T11:39:02;13.80;99.90
22418;DHT22;11376;50.932;4.442;2024-03-06T11:44:00;14.00;99.90
22418;DHT22;11376;50.932;4.442;2024-03-06T11:46:44;14.10;99.90
22418;DHT22;11376;50.932;4.442;2024-03-06T11:49:20;13.70;99.90
22418;DHT22;11376;50.932;4.442;2024-03-06T11:51:50;13.80;99.90
22418;DHT22;11376;50.932;4.442;2024-03-06T11:54:16;13.80;99.90
22418;DHT22;11376;50.932;4.442;2024-03-06T11:56:45;14.30;99.90
22418;DHT22;11376;50.932;4.442;2024-03-06T11:59:12;15.40;99.90
22418;DHT22;11376;50.932;4.442;2024-03-06T12:01:38;16.10;99.90
22418;DHT22;11376;50.932;4.442;2024-03-06T12:04:04;17.00;99.90
22418;DHT22;11376;50.932;4.442;2024-03-06T12:06:31;18.80;99.90
22418;DHT22;11376;50.932;4.442;2024-03-06T12:08:58;19.20;99.90
22418;DHT22;11376;50.932;4.442;2024-03-06T12:11:24;18.70;99.90
22418;DHT22;11376;50.932;4.442;2024-03-06T12:13:51;18.50;99.90
22418;DHT22;11376;50.932;4.442;2024-03-06T12:16:17;18.20;99.90
22418;DHT22;11376;50.932;4.442;2024-03-06T12:18:43;17.90;99.90
22418;DHT22;11376;50.932;4.442;2024-03-06T12:21:10;17.90;99.90
22418;DHT22;11376;50.932;4.442;2024-03-06T12:23:36;18.00;99.90
22418;DHT22;11376;50.932;4.442;2024-03-06T12:26:08;17.60;99.90
22418;DHT22;11376;50.932;4.442;2024-03-06T12:28:38;16.80;99.90
22418;DHT22;11376;50.932;4.442;2024-03-06T12:31:05;16.50;99.90
22418;DHT22;11376;50.932;4.442;2024-03-06T12:33:31;16.40;99.90
22418;DHT22;11376;50.932;4.442;2024-03-06T12:36:04;15.90;99.90
22418;DHT22;11376;50.932;4.442;2024-03-06T12:38:30;15.80;99.90
22418;DHT22;11376;50.932;4.442;2024-03-06T12:40:56;15.80;99.90
22418;DHT22;11376;50.932;4.442;2024-03-06T12:43:21;15.80;99.90
22418;DHT22;11376;50.932;4.442;2024-03-06T12:45:47;16.10;99.90
22418;DHT22;11376;50.932;4.442;2024-03-06T12:48:12;16.40;99.90
22418;DHT22;11376;50.932;4.442;2024-03-06T12:50:38;17.20;99.90
22418;DHT22;11376;50.932;4.442;2024-03-06T12:53:04;17.60;99.90
22418;DHT22;11376;50.932;4.442;2024-03-06T12:55:30;17.30;99.90
22418;DHT22;11376;50.932;4.442;2024-03-06T12:57:57;17.30;99.90
22418;DHT22;11376;50.932;4.442;2024-03-06T13:00:23;18.20;99.90
22418;DHT22;11376;50.932;4.442;2024-03-06T13:02:49;18.80;99.90
22418;DHT22;11376;50.932;4.442;2024-03-06T13:05:18;19.30;99.90
22418;DHT22;11376;50.932;4.442;2024-03-06T13:07:45;20.50;99.90
22418;DHT22;11376;50.932;4.442;2024-03-06T13:10:11;22.40;99.90
22418;DHT22;11376;50.932;4.442;2024-03-06T13:12:39;24.00;96.70
22418;DHT22;11376;50.932;4.442;2024-03-06T13:15:05;25.30;92.40
22418;DHT22;11376;50.932;4.442;2024-03-06T13:17:33;25.30;90.30
22418;DHT22;11376;50.932;4.442;2024-03-06T13:19:58;24.90;89.30
22418;DHT22;11376;50.932;4.442;2024-03-06T13:22:24;25.40;84.60
22418;DHT22;11376;50.932;4.442;2024-03-06T13:24:50;24.80;84.10
22418;DHT22;11376;50.932;4.442;2024-03-06T13:27:16;24.00;85.40
22418;DHT22;11376;50.932;4.442;2024-03-06T13:29:42;23.20;89.00
22418;DHT22;11376;50.932;4.442;2024-03-06T13:32:08;22.70;88.90
22418;DHT22;11376;50.932;4.442;2024-03-06T13:34:33;22.20;90.60
22418;DHT22;11376;50.932;4.442;2024-03-06T13:36:59;21.50;91.10
22418;DHT22;11376;50.932;4.442;2024-03-06T13:39:25;20.90;91.80
22418;DHT22;11376;50.932;4.442;2024-03-06T13:41:51;20.60;92.40
22418;DHT22;11376;50.932;4.442;2024-03-06T13:44:18;20.30;92.80
22418;DHT22;11376;50.932;4.442;2024-03-06T13:46:43;19.80;93.80
22418;DHT22;11376;50.932;4.442;2024-03-06T13:49:41;19.60;94.90
22418;DHT22;11376;50.932;4.442;2024-03-06T13:52:08;19.60;95.30
22418;DHT22;11376;50.932;4.442;2024-03-06T13:54:37;20.60;94.60
22418;DHT22;11376;50.932;4.442;2024-03-06T13:57:04;21.70;91.20
22418;DHT22;11376;50.932;4.442;2024-03-06T13:59:33;21.70;91.40
22418;DHT22;11376;50.932;4.442;2024-03-06T14:01:59;21.60;91.30
22418;DHT22;11376;50.932;4.442;2024-03-06T14:04:25;21.00;89.70
22418;DHT22;11376;50.932;4.442;2024-03-06T14:06:51;20.60;90.40
22418;DHT22;11376;50.932;4.442;2024-03-06T14:09:18;20.20;90.20
22418;DHT22;11376;50.932;4.442;2024-03-06T14:11:44;19.80;91.50
22418;DHT22;11376;50.932;4.442;2024-03-06T14:14:10;19.50;91.50
22418;DHT22;11376;50.932;4.442;2024-03-06T14:16:37;19.60;91.90
22418;DHT22;11376;50.932;4.442;2024-03-06T14:19:02;19.70;92.10
22418;DHT22;11376;50.932;4.442;2024-03-06T14:21:30;19.60;90.60
22418;DHT22;11376;50.932;4.442;2024-03-06T14:23:59;19.50;91.10
22418;DHT22;11376;50.932;4.442;2024-03-06T14:26:25;19.30;91.90
22418;DHT22;11376;50.932;4.442;2024-03-06T14:28:53;18.90;92.60
22418;DHT22;11376;50.932;4.442;2024-03-06T14:31:18;19.10;92.60
22418;DHT22;11376;50.932;4.442;2024-03-06T14:33:44;19.00;92.80
22418;DHT22;11376;50.932;4.442;2024-03-06T14:36:09;18.50;93.50
22418;DHT22;11376;50.932;4.442;2024-03-06T14:38:35;18.30;94.10
22418;DHT22;11376;50.932;4.442;2024-03-06T14:41:00;18.40;94.40
22418;DHT22;11376;50.932;4.442;2024-03-06T14:43:26;18.70;94.30
22418;DHT22;11376;50.932;4.442;2024-03-06T14:45:52;18.70;94.30
22418;DHT22;11376;50.932;4.442;2024-03-06T14:48:17;18.80;94.00
22418;DHT22;11376;50.932;4.442;2024-03-06T14:50:43;18.80;93.90
22418;DHT22;11376;50.932;4.442;2024-03-06T14:53:09;18.90;94.10
22418;DHT22;11376;50.932;4.442;2024-03-06T14:55:34;18.80;94.30
22418;DHT22;11376;50.932;4.442;2024-03-06T14:58:00;18.60;94.70
22418;DHT22;11376;50.932;4.442;2024-03-06T15:00:26;18.50;95.70
22418;DHT22;11376;50.932;4.442;2024-03-06T15:02:52;18.80;94.80
22418;DHT22;11376;50.932;4.442;2024-03-06T15:05:17;18.90;94.50
22418;DHT22;11376;50.932;4.442;2024-03-06T15:07:43;18.60;94.40
22418;DHT22;11376;50.932;4.442;2024-03-06T15:10:09;18.30;95.40
22418;DHT22;11376;50.932;4.442;2024-03-06T15:12:35;18.20;95.80
22418;DHT22;11376;50.932;4.442;2024-03-06T15:15:03;18.40;95.60
22418;DHT22;11376;50.932;4.442;2024-03-06T15:17:32;18.90;94.60
22418;DHT22;11376;50.932;4.442;2024-03-06T15:19:58;19.60;93.60
22418;DHT22;11376;50.932;4.442;2024-03-06T15:22:23;20.20;92.70
22418;DHT22;11376;50.932;4.442;2024-03-06T15:24:49;20.30;91.50
22418;DHT22;11376;50.932;4.442;2024-03-06T15:27:16;20.10;91.90
22418;DHT22;11376;50.932;4.442;2024-03-06T15:29:42;20.30;91.50
22418;DHT22;11376;50.932;4.442;2024-03-06T15:32:09;19.30;90.80
22418;DHT22;11376;50.932;4.442;2024-03-06T15:34:36;18.30;92.10
22418;DHT22;11376;50.932;4.442;2024-03-06T15:37:02;18.20;94.30
22418;DHT22;11376;50.932;4.442;2024-03-06T15:39:28;18.50;93.60
22418;DHT22;11376;50.932;4.442;2024-03-06T15:41:53;18.80;93.20
22418;DHT22;11376;50.932;4.442;2024-03-06T15:44:19;18.80;92.30
22418;DHT22;11376;50.932;4.442;2024-03-06T15:46:45;18.70;93.00
22418;DHT22;11376;50.932;4.442;2024-03-06T15:49:22;18.80;92.00
22418;DHT22;11376;50.932;4.442;2024-03-06T15:51:50;18.30;92.80